sensor_id;sensor_type;location;lat;lon;timestamp;pressure;altitude;pressure_sealevel;temperature;humidity
20037;BME280;10179;42.640;23.312;2022-07-06T00:01:23;93643.16;;;22.44;66.97
20037;BME280;10179;42.640;23.312;2022-07-06T00:03:49;93628.88;;;22.35;66.74
20037;BME280;10179;42.640;23.312;2022-07-06T00:06:14;93675.66;;;22.65;67.05
20037;BME280;10179;42.640;23.312;2022-07-06T00:08:42;93685.00;;;22.68;66.46
20037;BME280;10179;42.640;23.312;2022-07-06T00:11:08;93655.16;;;22.47;66.39
20037;BME280;10179;42.640;23.312;2022-07-06T00:13:33;93595.28;;;22.01;66.26
20037;BME280;10179;42.640;23.312;2022-07-06T00:15:59;93681.94;;;22.47;66.60
20037;BME280;10179;42.640;23.312;2022-07-06T00:18:24;93711.16;;;22.57;66.95
20037;BME280;10179;42.640;23.312;2022-07-06T00:20:50;93723.75;;;22.56;67.16
20037;BME280;10179;42.640;23.312;2022-07-06T00:23:15;93705.81;;;22.43;67.15
20037;BME280;10179;42.640;23.312;2022-07-06T00:25:41;93700.47;;;22.43;67.80
20037;BME280;10179;42.640;23.312;2022-07-06T00:28:06;93706.91;;;22.42;68.03
20037;BME280;10179;42.640;23.312;2022-07-06T00:30:32;93744.59;;;22.59;68.07
20037;BME280;10179;42.640;23.312;2022-07-06T00:32:57;93714.94;;;22.42;68.36
20037;BME280;10179;42.640;23.312;2022-07-06T00:35:24;93704.81;;;22.39;68.43
20037;BME280;10179;42.640;23.312;2022-07-06T00:37:50;93738.75;;;22.71;68.62
20037;BME280;10179;42.640;23.312;2022-07-06T00:40:16;93728.03;;;22.71;68.78
20037;BME280;10179;42.640;23.312;2022-07-06T00:42:43;93729.81;;;22.76;68.62
20037;BME280;10179;42.640;23.312;2022-07-06T00:45:10;93735.75;;;22.86;68.07
20037;BME280;10179;42.640;23.312;2022-07-06T00:47:36;93730.59;;;22.90;68.21
20037;BME280;10179;42.640;23.312;2022-07-06T00:50:03;93738.31;;;22.92;67.62
20037;BME280;10179;42.640;23.312;2022-07-06T00:55:20;93714.53;;;22.90;67.92
20037;BME280;10179;42.640;23.312;2022-07-06T00:57:46;93734.97;;;23.00;67.88
20037;BME280;10179;42.640;23.312;2022-07-06T01:00:14;93706.41;;;22.95;67.84
20037;BME280;10179;42.640;23.312;2022-07-06T01:02:41;93694.09;;;22.94;67.62
20037;BME280;10179;42.640;23.312;2022-07-06T01:05:08;93709.03;;;23.09;67.56
20037;BME280;10179;42.640;23.312;2022-07-06T01:07:35;93698.03;;;23.10;67.59
20037;BME280;10179;42.640;23.312;2022-07-06T01:10:05;93659.59;;;22.93;67.55
20037;BME280;10179;42.640;23.312;2022-07-06T01:12:31;93631.19;;;22.78;67.38
20037;BME280;10179;42.640;23.312;2022-07-06T01:14:56;93692.09;;;23.14;67.09
20037;BME280;10179;42.640;23.312;2022-07-06T01:17:22;93632.91;;;22.74;67.04
20037;BME280;10179;42.640;23.312;2022-07-06T01:19:48;93694.25;;;23.12;67.01
20037;BME280;10179;42.640;23.312;2022-07-06T01:22:14;93686.22;;;23.12;67.08
20037;BME280;10179;42.640;23.312;2022-07-06T01:24:39;93681.59;;;23.03;66.64
20037;BME280;10179;42.640;23.312;2022-07-06T01:27:05;93688.22;;;23.06;66.96
20037;BME280;10179;42.640;23.312;2022-07-06T01:29:34;93693.28;;;23.07;66.75
20037;BME280;10179;42.640;23.312;2022-07-06T01:32:00;93703.03;;;23.03;66.32
20037;BME280;10179;42.640;23.312;2022-07-06T01:34:26;93598.84;;;22.38;66.32
20037;BME280;10179;42.640;23.312;2022-07-06T01:36:52;93697.88;;;22.93;66.32
20037;BME280;10179;42.640;23.312;2022-07-06T01:39:18;93699.25;;;22.91;66.31
20037;BME280;10179;42.640;23.312;2022-07-06T01:41:43;93684.66;;;22.83;66.55
20037;BME280;10179;42.640;23.312;2022-07-06T01:44:09;93603.81;;;22.31;66.82
20037;BME280;10179;42.640;23.312;2022-07-06T01:46:34;93598.47;;;22.31;66.38
20037;BME280;10179;42.640;23.312;2022-07-06T01:49:00;93693.22;;;22.85;66.80
20037;BME280;10179;42.640;23.312;2022-07-06T01:51:26;93680.81;;;22.75;66.86
20037;BME280;10179;42.640;23.312;2022-07-06T01:53:52;93665.34;;;22.58;66.58
20037;BME280;10179;42.640;23.312;2022-07-06T01:56:18;93699.75;;;22.79;66.31
20037;BME280;10179;42.640;23.312;2022-07-06T01:58:47;93632.66;;;22.34;66.56
20037;BME280;10179;42.640;23.312;2022-07-06T02:01:18;93703.03;;;22.76;66.37
20037;BME280;10179;42.640;23.312;2022-07-06T02:03:45;93703.03;;;22.76;66.79
20037;BME280;10179;42.640;23.312;2022-07-06T02:06:11;93655.44;;;22.45;66.37
20037;BME280;10179;42.640;23.312;2022-07-06T02:08:40;93703.13;;;22.71;66.29
20037;BME280;10179;42.640;23.312;2022-07-06T02:11:07;93683.13;;;22.54;66.25
20037;BME280;10179;42.640;23.312;2022-07-06T02:13:33;93690.75;;;22.61;66.21
20037;BME280;10179;42.640;23.312;2022-07-06T02:15:59;93690.56;;;22.57;66.45
20037;BME280;10179;42.640;23.312;2022-07-06T02:18:24;93697.56;;;22.67;65.98
20037;BME280;10179;42.640;23.312;2022-07-06T02:20:49;93699.47;;;22.67;65.99
20037;BME280;10179;42.640;23.312;2022-07-06T02:23:15;93689.66;;;22.62;66.28
20037;BME280;10179;42.640;23.312;2022-07-06T02:25:40;93670.13;;;22.48;65.91
20037;BME280;10179;42.640;23.312;2022-07-06T02:28:06;93646.56;;;22.36;66.22
20037;BME280;10179;42.640;23.312;2022-07-06T02:30:32;93700.56;;;22.66;65.97
20037;BME280;10179;42.640;23.312;2022-07-06T02:32:57;93697.28;;;22.69;66.12
20037;BME280;10179;42.640;23.312;2022-07-06T02:35:23;93694.28;;;22.70;65.58
20037;BME280;10179;42.640;23.312;2022-07-06T02:37:48;93695.09;;;22.71;65.49
20037;BME280;10179;42.640;23.312;2022-07-06T02:40:13;93687.06;;;22.71;65.65
20037;BME280;10179;42.640;23.312;2022-07-06T02:42:39;93687.56;;;22.73;65.78
20037;BME280;10179;42.640;23.312;2022-07-06T02:45:06;93682.19;;;22.73;65.59
20037;BME280;10179;42.640;23.312;2022-07-06T02:47:31;93619.38;;;22.29;65.14
20037;BME280;10179;42.640;23.312;2022-07-06T02:49:57;93665.94;;;22.55;65.28
20037;BME280;10179;42.640;23.312;2022-07-06T02:52:23;93639.50;;;22.40;65.46
20037;BME280;10179;42.640;23.312;2022-07-06T02:54:48;93666.16;;;22.59;65.36
20037;BME280;10179;42.640;23.312;2022-07-06T02:57:14;93648.53;;;22.44;65.20
20037;BME280;10179;42.640;23.312;2022-07-06T02:59:40;93695.47;;;22.78;65.55
20037;BME280;10179;42.640;23.312;2022-07-06T03:02:07;93701.66;;;22.78;65.45
20037;BME280;10179;42.640;23.312;2022-07-06T03:04:33;93671.69;;;22.62;64.96
20037;BME280;10179;42.640;23.312;2022-07-06T03:06:58;93649.31;;;22.45;64.83
20037;BME280;10179;42.640;23.312;2022-07-06T03:09:24;93692.31;;;22.76;64.54
20037;BME280;10179;42.640;23.312;2022-07-06T03:11:49;93668.13;;;22.53;64.86
20037;BME280;10179;42.640;23.312;2022-07-06T03:14:15;93677.06;;;22.62;64.45
20037;BME280;10179;42.640;23.312;2022-07-06T03:16:40;93678.75;;;22.58;64.74
20037;BME280;10179;42.640;23.312;2022-07-06T03:19:06;93644.66;;;22.23;64.95
20037;BME280;10179;42.640;23.312;2022-07-06T03:21:31;93703.63;;;22.73;64.94
20037;BME280;10179;42.640;23.312;2022-07-06T03:23:57;93684.59;;;22.60;64.72
20037;BME280;10179;42.640;23.312;2022-07-06T03:26:22;93711.16;;;22.71;64.35
20037;BME280;10179;42.640;23.312;2022-07-06T03:28:48;93712.25;;;22.70;63.87
20037;BME280;10179;42.640;23.312;2022-07-06T03:31:13;93709.09;;;22.68;63.54
20037;BME280;10179;42.640;23.312;2022-07-06T03:33:38;93722.47;;;22.68;63.31
20037;BME280;10179;42.640;23.312;2022-07-06T03:36:04;93660.81;;;22.31;63.36
20037;BME280;10179;42.640;23.312;2022-07-06T03:38:30;93720.88;;;22.67;62.64
20037;BME280;10179;42.640;23.312;2022-07-06T03:40:56;93704.94;;;22.61;62.51
20037;BME280;10179;42.640;23.312;2022-07-06T03:43:21;93702.84;;;22.58;62.32
20037;BME280;10179;42.640;23.312;2022-07-06T03:45:47;93721.06;;;22.70;62.45
20037;BME280;10179;42.640;23.312;2022-07-06T03:48:12;93725.06;;;22.73;62.23
20037;BME280;10179;42.640;23.312;2022-07-06T03:50:37;93719.38;;;22.74;62.21
20037;BME280;10179;42.640;23.312;2022-07-06T03:53:03;93726.53;;;22.79;62.62
20037;BME280;10179;42.640;23.312;2022-07-06T03:55:28;93731.78;;;22.84;62.02
20037;BME280;10179;42.640;23.312;2022-07-06T03:57:54;93681.50;;;22.53;61.69
20037;BME280;10179;42.640;23.312;2022-07-06T04:00:19;93707.59;;;22.89;61.94
20037;BME280;10179;42.640;23.312;2022-07-06T04:02:45;93731.41;;;23.04;61.65
20037;BME280;10179;42.640;23.312;2022-07-06T04:05:10;93691.00;;;22.87;61.32
20037;BME280;10179;42.640;23.312;2022-07-06T04:07:36;93729.56;;;23.27;61.14
20037;BME280;10179;42.640;23.312;2022-07-06T04:10:01;93733.28;;;23.40;61.15
20037;BME280;10179;42.640;23.312;2022-07-06T04:12:27;93731.84;;;23.56;60.89
20037;BME280;10179;42.640;23.312;2022-07-06T04:14:52;93542.44;;;22.48;60.26
20037;BME280;10179;42.640;23.312;2022-07-06T04:17:17;93748.25;;;23.91;59.88
20037;BME280;10179;42.640;23.312;2022-07-06T04:20:02;93736.00;;;24.08;59.87
20037;BME280;10179;42.640;23.312;2022-07-06T04:22:28;93722.03;;;24.19;59.06
20037;BME280;10179;42.640;23.312;2022-07-06T04:24:53;93683.28;;;24.03;58.51
20037;BME280;10179;42.640;23.312;2022-07-06T04:27:19;93734.72;;;24.59;58.08
20037;BME280;10179;42.640;23.312;2022-07-06T04:29:44;93740.16;;;24.76;57.48
20037;BME280;10179;42.640;23.312;2022-07-06T04:32:10;93703.97;;;24.73;57.30
20037;BME280;10179;42.640;23.312;2022-07-06T04:34:35;93743.25;;;25.09;56.76
20037;BME280;10179;42.640;23.312;2022-07-06T04:37:01;93749.31;;;25.23;55.83
20037;BME280;10179;42.640;23.312;2022-07-06T04:39:26;93713.25;;;25.16;55.58
20037;BME280;10179;42.640;23.312;2022-07-06T04:41:53;93683.16;;;25.05;54.84
20037;BME280;10179;42.640;23.312;2022-07-06T04:44:18;93754.13;;;25.53;53.96
20037;BME280;10179;42.640;23.312;2022-07-06T04:46:44;93763.59;;;25.50;53.69
20037;BME280;10179;42.640;23.312;2022-07-06T04:49:09;93765.78;;;25.48;53.63
20037;BME280;10179;42.640;23.312;2022-07-06T04:51:34;93754.06;;;25.27;53.22
20037;BME280;10179;42.640;23.312;2022-07-06T04:54:00;93747.06;;;25.08;53.28
20037;BME280;10179;42.640;23.312;2022-07-06T04:56:25;93793.28;;;25.19;52.84
20037;BME280;10179;42.640;23.312;2022-07-06T04:58:51;93795.41;;;24.99;53.26
20037;BME280;10179;42.640;23.312;2022-07-06T05:01:16;93799.13;;;24.81;53.79
20037;BME280;10179;42.640;23.312;2022-07-06T05:03:42;93741.81;;;24.23;54.25
20037;BME280;10179;42.640;23.312;2022-07-06T05:06:07;93753.94;;;24.21;54.95
20037;BME280;10179;42.640;23.312;2022-07-06T05:08:33;93804.09;;;24.34;55.31
20037;BME280;10179;42.640;23.312;2022-07-06T05:10:59;93807.34;;;24.22;55.63
20037;BME280;10179;42.640;23.312;2022-07-06T05:13:25;93802.88;;;24.18;55.92
20037;BME280;10179;42.640;23.312;2022-07-06T05:15:50;93802.22;;;24.12;56.50
20037;BME280;10179;42.640;23.312;2022-07-06T05:18:16;93787.47;;;24.01;56.55
20037;BME280;10179;42.640;23.312;2022-07-06T05:20:41;93777.44;;;23.93;56.82
20037;BME280;10179;42.640;23.312;2022-07-06T05:23:06;93812.03;;;24.17;56.56
20037;BME280;10179;42.640;23.312;2022-07-06T05:25:32;93818.50;;;24.16;56.32
20037;BME280;10179;42.640;23.312;2022-07-06T05:27:58;93772.81;;;23.85;55.84
20037;BME280;10179;42.640;23.312;2022-07-06T05:30:25;93820.50;;;24.10;55.16
20037;BME280;10179;42.640;23.312;2022-07-06T05:32:50;93800.09;;;23.87;55.64
20037;BME280;10179;42.640;23.312;2022-07-06T05:35:16;93821.25;;;24.02;56.14
20037;BME280;10179;42.640;23.312;2022-07-06T05:37:42;93804.44;;;23.96;56.15
20037;BME280;10179;42.640;23.312;2022-07-06T05:40:08;93823.88;;;24.16;55.59
20037;BME280;10179;42.640;23.312;2022-07-06T05:42:33;93811.22;;;24.16;55.23
20037;BME280;10179;42.640;23.312;2022-07-06T05:44:59;93823.97;;;24.33;54.93
20037;BME280;10179;42.640;23.312;2022-07-06T05:47:24;93816.19;;;24.45;55.10
20037;BME280;10179;42.640;23.312;2022-07-06T05:50:08;93830.84;;;24.70;54.10
20037;BME280;10179;42.640;23.312;2022-07-06T05:52:44;93835.03;;;24.85;53.51
20037;BME280;10179;42.640;23.312;2022-07-06T05:55:11;93740.88;;;24.28;52.41
20037;BME280;10179;42.640;23.312;2022-07-06T05:57:38;93830.03;;;24.92;51.93
20037;BME280;10179;42.640;23.312;2022-07-06T06:00:07;93833.50;;;25.02;51.80
20037;BME280;10179;42.640;23.312;2022-07-06T06:02:40;93837.66;;;25.08;51.59
20037;BME280;10179;42.640;23.312;2022-07-06T06:05:10;93801.81;;;24.81;51.16
20037;BME280;10179;42.640;23.312;2022-07-06T06:07:39;93830.22;;;25.05;51.13
20037;BME280;10179;42.640;23.312;2022-07-06T06:10:10;93834.47;;;25.06;50.99
20037;BME280;10179;42.640;23.312;2022-07-06T06:12:35;93664.56;;;23.89;50.78
20037;BME280;10179;42.640;23.312;2022-07-06T06:15:01;93724.66;;;24.33;50.46
20037;BME280;10179;42.640;23.312;2022-07-06T06:17:27;93830.53;;;25.03;50.01
20037;BME280;10179;42.640;23.312;2022-07-06T06:19:53;93830.53;;;25.03;50.18
20037;BME280;10179;42.640;23.312;2022-07-06T06:22:18;93804.84;;;24.88;50.41
20037;BME280;10179;42.640;23.312;2022-07-06T06:24:44;93757.78;;;24.60;50.58
20037;BME280;10179;42.640;23.312;2022-07-06T06:27:11;93828.47;;;25.09;50.24
20037;BME280;10179;42.640;23.312;2022-07-06T06:29:36;93826.91;;;25.08;49.65
20037;BME280;10179;42.640;23.312;2022-07-06T06:32:02;93823.72;;;25.06;50.14
20037;BME280;10179;42.640;23.312;2022-07-06T06:34:27;93819.16;;;25.06;50.34
20037;BME280;10179;42.640;23.312;2022-07-06T06:36:53;93772.06;;;24.69;50.68
20037;BME280;10179;42.640;23.312;2022-07-06T06:39:18;93826.84;;;24.90;51.19
20037;BME280;10179;42.640;23.312;2022-07-06T06:41:44;93829.94;;;24.75;51.72
20037;BME280;10179;42.640;23.312;2022-07-06T06:44:09;93808.00;;;24.50;52.22
20037;BME280;10179;42.640;23.312;2022-07-06T06:46:34;93811.53;;;24.37;52.75
20037;BME280;10179;42.640;23.312;2022-07-06T06:49:00;93768.00;;;23.95;53.23
20037;BME280;10179;42.640;23.312;2022-07-06T06:51:25;93783.34;;;24.03;53.79
20037;BME280;10179;42.640;23.312;2022-07-06T06:53:51;93802.41;;;24.16;53.76
20037;BME280;10179;42.640;23.312;2022-07-06T06:56:16;93823.38;;;24.36;54.06
20037;BME280;10179;42.640;23.312;2022-07-06T06:58:42;93824.84;;;24.42;54.08
20037;BME280;10179;42.640;23.312;2022-07-06T07:01:08;93824.13;;;24.50;54.15
20037;BME280;10179;42.640;23.312;2022-07-06T07:03:34;93768.75;;;24.18;53.67
20037;BME280;10179;42.640;23.312;2022-07-06T07:05:59;93823.22;;;24.64;53.16
20037;BME280;10179;42.640;23.312;2022-07-06T07:08:25;93818.88;;;24.76;52.26
20037;BME280;10179;42.640;23.312;2022-07-06T07:10:51;93820.00;;;24.84;52.39
20037;BME280;10179;42.640;23.312;2022-07-06T07:13:16;93823.03;;;24.91;52.38
20037;BME280;10179;42.640;23.312;2022-07-06T07:15:42;93821.13;;;24.92;52.26
20037;BME280;10179;42.640;23.312;2022-07-06T07:18:07;93830.81;;;25.02;51.79
20037;BME280;10179;42.640;23.312;2022-07-06T07:20:33;93831.31;;;25.04;51.51
20037;BME280;10179;42.640;23.312;2022-07-06T07:22:59;93772.06;;;24.69;51.92
20037;BME280;10179;42.640;23.312;2022-07-06T07:25:26;93788.88;;;24.83;52.14
20037;BME280;10179;42.640;23.312;2022-07-06T07:27:51;93825.00;;;25.08;51.97
20037;BME280;10179;42.640;23.312;2022-07-06T07:30:17;93815.38;;;25.07;51.38
20037;BME280;10179;42.640;23.312;2022-07-06T07:32:42;93829.47;;;25.13;51.34
20037;BME280;10179;42.640;23.312;2022-07-06T07:35:08;93815.38;;;25.07;51.46
20037;BME280;10179;42.640;23.312;2022-07-06T07:37:34;93784.78;;;24.86;51.45
20037;BME280;10179;42.640;23.312;2022-07-06T07:39:59;93828.22;;;25.19;51.33
20037;BME280;10179;42.640;23.312;2022-07-06T07:42:25;93770.25;;;24.95;51.57
20037;BME280;10179;42.640;23.312;2022-07-06T07:44:50;93821.00;;;25.28;51.64
20037;BME280;10179;42.640;23.312;2022-07-06T07:47:16;93823.53;;;25.33;51.49
20037;BME280;10179;42.640;23.312;2022-07-06T07:49:41;93823.84;;;25.40;51.39
20037;BME280;10179;42.640;23.312;2022-07-06T07:52:07;93818.81;;;25.47;51.04
20037;BME280;10179;42.640;23.312;2022-07-06T07:54:32;93818.03;;;25.64;51.50
20037;BME280;10179;42.640;23.312;2022-07-06T07:56:58;93798.75;;;25.62;51.06
20037;BME280;10179;42.640;23.312;2022-07-06T07:59:23;93816.22;;;26.08;50.52
20037;BME280;10179;42.640;23.312;2022-07-06T08:01:49;93806.03;;;26.40;50.11
20037;BME280;10179;42.640;23.312;2022-07-06T08:04:14;93781.78;;;26.49;48.92
20037;BME280;10179;42.640;23.312;2022-07-06T08:06:40;93812.41;;;26.91;47.90
20037;BME280;10179;42.640;23.312;2022-07-06T08:09:05;93817.13;;;27.03;47.62
20037;BME280;10179;42.640;23.312;2022-07-06T08:11:33;93819.94;;;27.15;47.32
20037;BME280;10179;42.640;23.312;2022-07-06T08:13:59;93802.59;;;27.25;46.92
20037;BME280;10179;42.640;23.312;2022-07-06T08:16:25;93821.94;;;27.56;45.77
20037;BME280;10179;42.640;23.312;2022-07-06T08:18:50;93818.66;;;27.80;45.51
20037;BME280;10179;42.640;23.312;2022-07-06T08:21:16;93819.69;;;28.09;45.01
20037;BME280;10179;42.640;23.312;2022-07-06T08:23:41;93827.19;;;28.45;44.79
20037;BME280;10179;42.640;23.312;2022-07-06T08:26:07;93797.63;;;28.61;43.52
20037;BME280;10179;42.640;23.312;2022-07-06T08:28:32;93810.78;;;29.08;43.40
20037;BME280;10179;42.640;23.312;2022-07-06T08:30:58;93798.59;;;29.39;42.71
20037;BME280;10179;42.640;23.312;2022-07-06T08:33:23;93819.28;;;29.96;41.68
20037;BME280;10179;42.640;23.312;2022-07-06T08:35:49;93808.88;;;30.23;40.54
20037;BME280;10179;42.640;23.312;2022-07-06T08:38:14;93813.16;;;30.67;39.47
20037;BME280;10179;42.640;23.312;2022-07-06T08:40:40;93793.19;;;30.88;38.66
20037;BME280;10179;42.640;23.312;2022-07-06T08:43:07;93810.84;;;31.29;38.23
20037;BME280;10179;42.640;23.312;2022-07-06T08:45:34;93807.91;;;31.34;36.80
20037;BME280;10179;42.640;23.312;2022-07-06T08:48:05;93807.28;;;31.09;37.83
20037;BME280;10179;42.640;23.312;2022-07-06T08:50:33;93802.38;;;30.99;37.93
20037;BME280;10179;42.640;23.312;2022-07-06T08:52:58;93808.44;;;30.93;38.22
20037;BME280;10179;42.640;23.312;2022-07-06T08:55:27;93809.81;;;30.86;38.48
20037;BME280;10179;42.640;23.312;2022-07-06T08:57:57;93810.78;;;30.94;38.90
20037;BME280;10179;42.640;23.312;2022-07-06T09:00:23;93815.00;;;31.07;38.54
20037;BME280;10179;42.640;23.312;2022-07-06T09:02:50;93827.34;;;31.21;38.04
20037;BME280;10179;42.640;23.312;2022-07-06T09:05:17;93812.13;;;31.32;37.63
20037;BME280;10179;42.640;23.312;2022-07-06T09:07:45;93804.31;;;31.46;37.27
20037;BME280;10179;42.640;23.312;2022-07-06T09:10:14;93803.94;;;31.48;37.07
20037;BME280;10179;42.640;23.312;2022-07-06T09:12:39;93755.97;;;31.20;37.64
20037;BME280;10179;42.640;23.312;2022-07-06T09:15:05;93805.34;;;31.57;37.30
20037;BME280;10179;42.640;23.312;2022-07-06T09:17:31;93802.44;;;31.66;37.04
20037;BME280;10179;42.640;23.312;2022-07-06T09:19:57;93808.81;;;31.74;36.77
20037;BME280;10179;42.640;23.312;2022-07-06T09:22:32;93805.66;;;31.72;36.89
20037;BME280;10179;42.640;23.312;2022-07-06T09:25:13;93811.63;;;31.61;36.93
20037;BME280;10179;42.640;23.312;2022-07-06T09:27:40;93808.63;;;31.31;37.21
20037;BME280;10179;42.640;23.312;2022-07-06T09:30:10;93805.63;;;31.05;37.60
20037;BME280;10179;42.640;23.312;2022-07-06T09:32:44;93792.06;;;30.89;38.16
20037;BME280;10179;42.640;23.312;2022-07-06T09:35:39;93798.19;;;30.86;37.82
20037;BME280;10179;42.640;23.312;2022-07-06T09:40:32;93809.34;;;30.40;38.72
20037;BME280;10179;42.640;23.312;2022-07-06T09:43:27;93805.56;;;30.29;38.92
20037;BME280;10179;42.640;23.312;2022-07-06T09:45:57;93800.03;;;30.26;39.35
20037;BME280;10179;42.640;23.312;2022-07-06T09:48:24;93798.41;;;30.37;39.08
20037;BME280;10179;42.640;23.312;2022-07-06T09:50:53;93791.50;;;30.39;38.54
20037;BME280;10179;42.640;23.312;2022-07-06T09:53:20;93796.13;;;30.39;38.69
20037;BME280;10179;42.640;23.312;2022-07-06T09:55:52;93769.31;;;30.22;39.03
20037;BME280;10179;42.640;23.312;2022-07-06T09:58:18;93724.84;;;29.94;39.12
20037;BME280;10179;42.640;23.312;2022-07-06T10:00:45;93786.16;;;30.43;38.64
20037;BME280;10179;42.640;23.312;2022-07-06T10:03:12;93776.09;;;30.28;38.96
20037;BME280;10179;42.640;23.312;2022-07-06T10:05:40;93798.66;;;30.32;39.22
20037;BME280;10179;42.640;23.312;2022-07-06T10:08:07;93792.91;;;30.33;39.09
20037;BME280;10179;42.640;23.312;2022-07-06T10:10:38;93793.28;;;30.48;39.08
20037;BME280;10179;42.640;23.312;2022-07-06T10:13:04;93792.28;;;30.68;38.56
20037;BME280;10179;42.640;23.312;2022-07-06T10:15:34;93780.38;;;30.73;37.43
20037;BME280;10179;42.640;23.312;2022-07-06T10:18:02;93790.66;;;30.51;38.03
20037;BME280;10179;42.640;23.312;2022-07-06T10:20:29;93731.56;;;30.01;38.73
20037;BME280;10179;42.640;23.312;2022-07-06T10:22:58;93768.97;;;30.51;38.74
20037;BME280;10179;42.640;23.312;2022-07-06T10:25:25;93733.44;;;30.56;37.81
20037;BME280;10179;42.640;23.312;2022-07-06T10:27:52;93764.53;;;31.06;37.08
20037;BME280;10179;42.640;23.312;2022-07-06T10:30:18;93766.28;;;31.46;37.01
20037;BME280;10179;42.640;23.312;2022-07-06T10:32:44;93774.94;;;31.87;35.88
20037;BME280;10179;42.640;23.312;2022-07-06T10:35:11;93757.38;;;32.00;35.15
20037;BME280;10179;42.640;23.312;2022-07-06T10:37:37;93770.19;;;32.19;34.96
20037;BME280;10179;42.640;23.312;2022-07-06T10:40:03;93740.06;;;31.89;35.51
20037;BME280;10179;42.640;23.312;2022-07-06T10:50:38;93764.66;;;31.96;35.51
20037;BME280;10179;42.640;23.312;2022-07-06T10:53:17;93774.97;;;32.26;35.74
20037;BME280;10179;42.640;23.312;2022-07-06T10:55:49;93772.25;;;32.45;34.51
20037;BME280;10179;42.640;23.312;2022-07-06T10:58:35;93772.25;;;32.45;34.74
20037;BME280;10179;42.640;23.312;2022-07-06T11:01:00;93772.88;;;32.58;33.92
20037;BME280;10179;42.640;23.312;2022-07-06T11:03:45;93771.19;;;32.73;33.92
20037;BME280;10179;42.640;23.312;2022-07-06T11:06:21;93771.09;;;32.27;34.20
20037;BME280;10179;42.640;23.312;2022-07-06T11:11:22;93766.69;;;31.99;34.80
20037;BME280;10179;42.640;23.312;2022-07-06T11:13:55;93732.75;;;31.74;34.83
20037;BME280;10179;42.640;23.312;2022-07-06T11:16:23;93753.88;;;31.65;35.25
20037;BME280;10179;42.640;23.312;2022-07-06T11:19:23;93748.75;;;31.59;35.72
20037;BME280;10179;42.640;23.312;2022-07-06T11:24:27;93765.59;;;31.49;35.44
20037;BME280;10179;42.640;23.312;2022-07-06T11:26:54;93758.41;;;31.09;36.67
20037;BME280;10179;42.640;23.312;2022-07-06T11:29:22;93765.44;;;30.79;36.52
20037;BME280;10179;42.640;23.312;2022-07-06T11:31:51;93749.91;;;30.48;37.67
20037;BME280;10179;42.640;23.312;2022-07-06T11:34:21;93759.97;;;30.47;37.57
20037;BME280;10179;42.640;23.312;2022-07-06T11:36:48;93751.78;;;30.03;38.11
20037;BME280;10179;42.640;23.312;2022-07-06T11:39:14;93760.88;;;29.83;38.50
20037;BME280;10179;42.640;23.312;2022-07-06T11:41:40;93739.03;;;29.63;37.97
20037;BME280;10179;42.640;23.312;2022-07-06T11:44:07;93749.53;;;29.53;38.93
20037;BME280;10179;42.640;23.312;2022-07-06T11:46:34;93742.66;;;29.43;39.13
20037;BME280;10179;42.640;23.312;2022-07-06T11:49:06;93737.47;;;29.38;38.56
20037;BME280;10179;42.640;23.312;2022-07-06T11:51:34;93738.63;;;29.24;38.56
20037;BME280;10179;42.640;23.312;2022-07-06T11:54:07;93732.91;;;29.14;38.17
20037;BME280;10179;42.640;23.312;2022-07-06T11:56:34;93735.03;;;29.08;38.02
20037;BME280;10179;42.640;23.312;2022-07-06T11:59:00;93710.19;;;28.82;38.73
20037;BME280;10179;42.640;23.312;2022-07-06T12:01:27;93719.91;;;28.83;39.22
20037;BME280;10179;42.640;23.312;2022-07-06T12:04:00;93729.34;;;28.89;39.82
20037;BME280;10179;42.640;23.312;2022-07-06T12:06:27;93725.53;;;28.90;39.64
20037;BME280;10179;42.640;23.312;2022-07-06T12:08:54;93722.84;;;28.90;39.03
20037;BME280;10179;42.640;23.312;2022-07-06T12:11:31;93728.03;;;28.83;38.63
20037;BME280;10179;42.640;23.312;2022-07-06T12:13:59;93719.88;;;28.70;38.89
20037;BME280;10179;42.640;23.312;2022-07-06T12:16:34;93727.00;;;28.75;39.27
20037;BME280;10179;42.640;23.312;2022-07-06T12:19:00;93712.69;;;28.62;39.20
20037;BME280;10179;42.640;23.312;2022-07-06T12:21:26;93706.59;;;28.65;39.25
20037;BME280;10179;42.640;23.312;2022-07-06T12:23:53;93721.91;;;28.73;39.79
20037;BME280;10179;42.640;23.312;2022-07-06T12:26:21;93730.72;;;28.83;39.64
20037;BME280;10179;42.640;23.312;2022-07-06T12:29:01;93726.78;;;28.92;39.01
20037;BME280;10179;42.640;23.312;2022-07-06T12:31:34;93738.97;;;28.86;39.49
20037;BME280;10179;42.640;23.312;2022-07-06T12:33:59;93729.63;;;29.08;39.18
20037;BME280;10179;42.640;23.312;2022-07-06T12:36:25;93711.78;;;28.70;39.18
20037;BME280;10179;42.640;23.312;2022-07-06T12:38:50;93667.13;;;28.27;40.17
20037;BME280;10179;42.640;23.312;2022-07-06T12:41:33;93736.56;;;28.85;40.07
20037;BME280;10179;42.640;23.312;2022-07-06T12:44:01;93732.41;;;28.75;39.37
20037;BME280;10179;42.640;23.312;2022-07-06T12:46:33;93724.63;;;28.73;39.27
20037;BME280;10179;42.640;23.312;2022-07-06T12:49:01;93719.66;;;28.63;39.79
20037;BME280;10179;42.640;23.312;2022-07-06T12:51:27;93637.59;;;28.10;40.38
20037;BME280;10179;42.640;23.312;2022-07-06T12:54:11;93710.88;;;28.66;39.96
20037;BME280;10179;42.640;23.312;2022-07-06T12:56:37;93703.44;;;28.63;40.16
20037;BME280;10179;42.640;23.312;2022-07-06T12:59:02;93711.78;;;28.70;40.44
20037;BME280;10179;42.640;23.312;2022-07-06T13:01:28;93669.19;;;28.43;39.96
20037;BME280;10179;42.640;23.312;2022-07-06T13:03:57;93689.72;;;28.68;40.24
20037;BME280;10179;42.640;23.312;2022-07-06T13:06:30;93699.63;;;28.76;39.79
20037;BME280;10179;42.640;23.312;2022-07-06T13:08:56;93707.16;;;28.83;40.12